Mica, South Africa

9:55 PM SAST on April 30, 2017 (GMT +0200)
Hoedspruit | | Change Station

Elev 1640 ft 24.37 °S, 31.03 °E | Updated 55 minutes ago

Clear
Clear
66 °F
Feels Like 66 °F
N
8
Wind Variable Wind from South

Today
High -- | Low -- °F
--% Chance of Precip.
Yesterday
High -- | Low -- °F
Precip. -- in
Pressure 30.33 in
Visibility -9999.0 miles
Clouds
Dew Point 59 °F
Humidity 78%
Rainfall 0.00 in
Snow Depth Not available.
6:17 AM 5:30 PM
Waxing Crescent, 25% visible
METAR FAHS 301900Z AUTO 18007KT //// // ////// 19/15 Q1027
Pressure 30.33 in
Visibility -9999.0 miles
Clouds
Dew Point 59 °F
Humidity 78%
Rainfall 0.00 in
Snow Depth Not available.
6:17 AM 5:30 PM
Waxing Crescent, 25% visible
METAR FAHS 301900Z AUTO 18007KT //// // ////// 19/15 Q1027

Get Severe Weather Alerts

Thanks for signing up!

Be on the lookout for a verification email in your inbox.

You'll start receiving the daily forecast at 8 AM.

×

10-Day Weather Forecast

No radar image for this location.
×

Almanac

Astronomy

Apr. 30, 2017 Rise Set
Actual Time
Civil Twilight
Nautical Twilight
Astronomical Twilight
Moon
Length of Visible Light
Length of Day
Tomorrow will be .
, % of the Moon is Illuminated

Today's Extremes

Country Highs Country Lows

Community

WunderPhotos

WunderBlog® & News

Nearby

Air Quality

  Air Quality AQ Index Pollutant
Not available.

Snow Depth

Station Depth Elevation

Earthquake Activity

City Distance Mag. Time & Date
Minimum magnitude displayed is 2.5.

Coastal Water Temperatures

Place Temperature

Stations

Nearby Weather Stations

Station Location Temp. Windchill Dew Point Humidity Wind Precip. Elev Updated Type